Yorkton Municipal Airport
CYQV : now visible

Airfield :











YOU CAN JOIN US ON...

 
LOGIN :

Register | Disclaimer

   EN    FR    IT 

 









Legend :    VFR   Marginal VFR   IFR   Intensive IFR   Very Intensive IFR
Visi :
Ceiling :
>= 8 km
>= 3000ft
5 to 8 km
1000 to 3000 ft
1500m to 5 km
500 to 1000 ft
800 to 1500m
200 to 500 ft
< 800m
< 200 ft
Symbols :   Thunderstorms  Fog  Heavy snow  Heavy precipitations  Wind > 20 kt






- Airport Elevation : 1635 ft
- IATA code : YQV


CYQV - Yorkton Municipal

CURRENT METAR :
  • 041900Z AUTO 19003KT 140V230 9SM FEW060 BKN088 BKN110 19/15 A3000 RMK SLP167 DENSITY ALT 2300FT

EXPIRED METARs :
  • 041800Z AUTO 22006KT 9SM FEW055 OVC092 19/14 A3000 RMK SLP167 DENSITY ALT 2300FT
  • 041700Z AUTO 22008KT 9SM OVC050 18/14 A2999 RMK SLP164 DENSITY ALT 2200FT
  • 041651Z AUTO 22007KT 9SM BKN050 18/14 A2999 RMK SLP164 DENSITY ALT 2300FT
  • 041635Z AUTO 22007G15KT 170V250 9SM -RA BKN050 BKN150 18/13 A2999 RMK SLP164 DENSITY ALT 2300FT
  • 041600Z AUTO 16013G20KT 9SM BKN150 BKN170 18/12 A2996 RMK SLP153 DENSITY ALT 2300FT

TAF TAF CYQV
Valid from the 04 at 18:00 until the 05 at 06:00 UTC


041739Z 0418/0506 22008KT P6SM OVC050
TEMPO 0419/0504 P6SM -SHRA
PROB40 0419/0502 VRB15G25KT 4SM TSRA OVC030CB
FM050400 26006KT P6SM BKN050 RMK FCST BASED ON AUTO OBS. NXT FCST BY 050000Z
CZWG FIR / North America



MET'MAP, your aeronautical weather chart ! - Copyright ORBIFLY December 2007 - Disclaimer

ORBIFLY MET'MAP TEAM :

Programming & Development : Alexandra Zaïnal
Concept & original design : Baudouin d'Aumeries
Assistance for programming : Marc-Olivier Méhu
Technical & hardware support : Manuel Goepfert

Contact : metmap@orbifly.com




SOURCES & CREDITS :

   NOAA       Earth
Advisory